Red Level, Alabama
Current Conditions -  °F | °C
As of 4:56 PM on Thursday 27 Nov 2014 (Local Time) from K79J Reporting Station
Clear Clear  
Wind Chill: 52°   Ceiling: Unl
Heat Index: 52°   Visibility: 10mi
Dew Point: 30°   Wind: 6mph
Humidity: 43%   Direction: 10°N
Pressure: 30.37"   Gusts: NA
Location:  31.41°N, 86.61°W
Report Text: K79J 272256Z AUTO 01005KT 10SM CLR 11/M01 A3037 RMK AO2 SLP282 T01111011
Loading
Personal Weather Stations






























Interactive Weather Map New forecast layout! Learn more

10-Day Weather Forecast

Advertisements
Track Severe Weather on mobile